sensor_id;sensor_type;location;lat;lon;timestamp;pressure;altitude;pressure_sealevel;temperature;humidity
55610;BME280;41486;52.502;13.486;2022-10-31T00:02:15;101303.94;;;10.94;100.00
55610;BME280;41486;52.502;13.486;2022-10-31T00:04:47;101304.69;;;10.96;100.00
55610;BME280;41486;52.502;13.486;2022-10-31T00:07:18;101307.09;;;10.99;100.00
55610;BME280;41486;52.502;13.486;2022-10-31T00:09:46;101304.75;;;10.94;100.00
55610;BME280;41486;52.502;13.486;2022-10-31T00:12:14;101309.50;;;10.89;100.00
55610;BME280;41486;52.502;13.486;2022-10-31T00:14:42;101308.34;;;10.80;100.00
55610;BME280;41486;52.502;13.486;2022-10-31T00:17:10;101307.81;;;10.88;100.00
55610;BME280;41486;52.502;13.486;2022-10-31T00:20:05;101309.72;;;11.12;100.00
55610;BME280;41486;52.502;13.486;2022-10-31T00:22:33;101305.84;;;11.04;100.00
55610;BME280;41486;52.502;13.486;2022-10-31T00:25:04;101309.06;;;10.82;100.00
55610;BME280;41486;52.502;13.486;2022-10-31T00:27:32;101310.66;;;10.85;100.00
55610;BME280;41486;52.502;13.486;2022-10-31T00:30:00;101314.03;;;10.87;100.00
55610;BME280;41486;52.502;13.486;2022-10-31T00:32:28;101317.00;;;11.08;100.00
55610;BME280;41486;52.502;13.486;2022-10-31T00:34:56;101317.13;;;11.19;100.00
55610;BME280;41486;52.502;13.486;2022-10-31T00:37:26;101312.88;;;10.91;100.00
55610;BME280;41486;52.502;13.486;2022-10-31T00:39:54;101318.38;;;11.14;100.00
55610;BME280;41486;52.502;13.486;2022-10-31T00:42:22;101319.31;;;11.00;100.00
55610;BME280;41486;52.502;13.486;2022-10-31T00:44:50;101315.63;;;10.89;100.00
55610;BME280;41486;52.502;13.486;2022-10-31T00:47:19;101326.03;;;10.78;100.00
55610;BME280;41486;52.502;13.486;2022-10-31T00:49:47;101332.41;;;10.74;100.00
55610;BME280;41486;52.502;13.486;2022-10-31T00:52:15;101331.59;;;10.73;100.00
55610;BME280;41486;52.502;13.486;2022-10-31T00:54:47;101332.13;;;10.79;100.00
55610;BME280;41486;52.502;13.486;2022-10-31T00:57:18;101332.00;;;10.67;100.00
55610;BME280;41486;52.502;13.486;2022-10-31T00:59:46;101330.91;;;10.57;100.00
55610;BME280;41486;52.502;13.486;2022-10-31T01:02:14;101329.63;;;10.90;100.00
55610;BME280;41486;52.502;13.486;2022-10-31T01:04:42;101326.84;;;10.79;100.00
55610;BME280;41486;52.502;13.486;2022-10-31T01:07:10;101337.25;;;10.67;100.00
55610;BME280;41486;52.502;13.486;2022-10-31T01:09:45;101336.44;;;10.80;100.00
55610;BME280;41486;52.502;13.486;2022-10-31T01:12:16;101334.34;;;10.72;100.00
55610;BME280;41486;52.502;13.486;2022-10-31T01:14:46;101331.31;;;10.91;100.00
55610;BME280;41486;52.502;13.486;2022-10-31T01:17:19;101337.91;;;10.71;100.00
55610;BME280;41486;52.502;13.486;2022-10-31T01:19:48;101344.94;;;10.70;100.00
55610;BME280;41486;52.502;13.486;2022-10-31T01:22:17;101339.53;;;10.86;100.00
55610;BME280;41486;52.502;13.486;2022-10-31T01:24:46;101346.59;;;10.99;100.00
55610;BME280;41486;52.502;13.486;2022-10-31T01:27:15;101346.91;;;11.07;100.00
55610;BME280;41486;52.502;13.486;2022-10-31T01:29:45;101340.19;;;11.16;100.00
55610;BME280;41486;52.502;13.486;2022-10-31T01:32:13;101343.78;;;11.15;100.00
55610;BME280;41486;52.502;13.486;2022-10-31T01:34:44;101336.19;;;11.10;100.00
55610;BME280;41486;52.502;13.486;2022-10-31T01:37:13;101343.03;;;11.13;100.00
55610;BME280;41486;52.502;13.486;2022-10-31T01:39:41;101341.75;;;11.05;100.00
55610;BME280;41486;52.502;13.486;2022-10-31T01:42:17;101340.19;;;11.16;100.00
55610;BME280;41486;52.502;13.486;2022-10-31T01:44:56;101337.84;;;10.98;100.00
55610;BME280;41486;52.502;13.486;2022-10-31T01:47:40;101337.53;;;10.90;100.00
55610;BME280;41486;52.502;13.486;2022-10-31T01:50:19;101342.03;;;10.88;100.00
55610;BME280;41486;52.502;13.486;2022-10-31T01:52:55;101342.13;;;10.73;100.00
55610;BME280;41486;52.502;13.486;2022-10-31T01:55:25;101332.50;;;11.13;100.00
55610;BME280;41486;52.502;13.486;2022-10-31T01:58:00;101330.69;;;10.87;100.00
55610;BME280;41486;52.502;13.486;2022-10-31T02:00:30;101334.31;;;11.25;100.00
55610;BME280;41486;52.502;13.486;2022-10-31T02:03:06;101339.47;;;11.14;100.00
55610;BME280;41486;52.502;13.486;2022-10-31T02:05:37;101352.63;;;11.14;100.00
55610;BME280;41486;52.502;13.486;2022-10-31T02:08:10;101349.47;;;11.34;100.00
55610;BME280;41486;52.502;13.486;2022-10-31T02:10:42;101343.75;;;11.02;100.00
55610;BME280;41486;52.502;13.486;2022-10-31T02:13:12;101344.19;;;11.09;100.00
55610;BME280;41486;52.502;13.486;2022-10-31T02:15:49;101350.78;;;10.76;100.00
55610;BME280;41486;52.502;13.486;2022-10-31T02:18:20;101356.06;;;10.88;100.00
55610;BME280;41486;52.502;13.486;2022-10-31T02:21:05;101348.84;;;11.05;100.00
55610;BME280;41486;52.502;13.486;2022-10-31T02:24:10;101344.28;;;11.07;100.00
55610;BME280;41486;52.502;13.486;2022-10-31T02:26:53;101338.19;;;11.07;100.00
55610;BME280;41486;52.502;13.486;2022-10-31T02:29:56;101347.06;;;11.31;100.00
55610;BME280;41486;52.502;13.486;2022-10-31T02:32:43;101342.09;;;11.27;100.00
55610;BME280;41486;52.502;13.486;2022-10-31T02:35:23;101344.09;;;11.10;100.00
55610;BME280;41486;52.502;13.486;2022-10-31T02:38:00;101339.25;;;11.30;100.00
55610;BME280;41486;52.502;13.486;2022-10-31T02:40:34;101340.00;;;11.32;100.00
55610;BME280;41486;52.502;13.486;2022-10-31T02:43:30;101346.00;;;11.34;100.00
55610;BME280;41486;52.502;13.486;2022-10-31T02:46:06;101341.88;;;11.04;100.00
55610;BME280;41486;52.502;13.486;2022-10-31T02:48:37;101341.41;;;10.84;100.00
55610;BME280;41486;52.502;13.486;2022-10-31T02:51:09;101345.09;;;10.82;100.00
55610;BME280;41486;52.502;13.486;2022-10-31T02:53:38;101346.50;;;11.00;100.00
55610;BME280;41486;52.502;13.486;2022-10-31T02:56:12;101353.94;;;10.81;100.00
55610;BME280;41486;52.502;13.486;2022-10-31T02:58:44;101352.53;;;10.75;100.00
55610;BME280;41486;52.502;13.486;2022-10-31T03:01:36;101356.63;;;10.66;100.00
55610;BME280;41486;52.502;13.486;2022-10-31T03:07:08;101362.00;;;11.18;100.00
55610;BME280;41486;52.502;13.486;2022-10-31T03:09:43;101365.28;;;11.09;100.00
55610;BME280;41486;52.502;13.486;2022-10-31T03:12:17;101364.94;;;11.00;100.00
55610;BME280;41486;52.502;13.486;2022-10-31T03:14:53;101366.53;;;11.16;100.00
55610;BME280;41486;52.502;13.486;2022-10-31T03:17:33;101366.03;;;11.36;100.00
55610;BME280;41486;52.502;13.486;2022-10-31T03:20:06;101370.16;;;11.54;100.00
55610;BME280;41486;52.502;13.486;2022-10-31T03:22:42;101370.47;;;11.36;100.00
55610;BME280;41486;52.502;13.486;2022-10-31T03:25:12;101380.25;;;11.34;100.00
55610;BME280;41486;52.502;13.486;2022-10-31T03:27:41;101378.16;;;11.52;100.00
55610;BME280;41486;52.502;13.486;2022-10-31T03:30:14;101374.88;;;11.35;100.00
55610;BME280;41486;52.502;13.486;2022-10-31T03:32:55;101374.34;;;11.30;100.00
55610;BME280;41486;52.502;13.486;2022-10-31T03:35:31;101387.72;;;11.27;100.00
55610;BME280;41486;52.502;13.486;2022-10-31T03:38:03;101384.38;;;11.25;100.00
55610;BME280;41486;52.502;13.486;2022-10-31T03:40:35;101388.69;;;11.78;100.00
55610;BME280;41486;52.502;13.486;2022-10-31T03:43:07;101388.91;;;11.75;100.00
55610;BME280;41486;52.502;13.486;2022-10-31T03:45:41;101398.28;;;11.53;100.00
55610;BME280;41486;52.502;13.486;2022-10-31T03:48:10;101400.41;;;11.48;100.00
55610;BME280;41486;52.502;13.486;2022-10-31T03:50:58;101404.31;;;11.81;100.00
55610;BME280;41486;52.502;13.486;2022-10-31T03:53:32;101408.22;;;12.01;100.00
55610;BME280;41486;52.502;13.486;2022-10-31T03:56:09;101407.47;;;12.12;100.00
55610;BME280;41486;52.502;13.486;2022-10-31T03:58:42;101413.66;;;12.24;100.00
55610;BME280;41486;52.502;13.486;2022-10-31T04:01:16;101406.91;;;11.94;100.00
55610;BME280;41486;52.502;13.486;2022-10-31T04:03:47;101403.03;;;11.74;100.00
55610;BME280;41486;52.502;13.486;2022-10-31T04:06:19;101403.44;;;11.80;100.00
55610;BME280;41486;52.502;13.486;2022-10-31T04:08:53;101407.59;;;11.72;100.00
55610;BME280;41486;52.502;13.486;2022-10-31T04:11:25;101408.00;;;11.65;100.00
55610;BME280;41486;52.502;13.486;2022-10-31T04:14:15;101406.59;;;11.34;100.00
55610;BME280;41486;52.502;13.486;2022-10-31T04:16:44;101409.25;;;11.34;100.00
55610;BME280;41486;52.502;13.486;2022-10-31T04:19:14;101409.69;;;11.41;100.00
55610;BME280;41486;52.502;13.486;2022-10-31T04:21:43;101409.97;;;11.23;100.00
55610;BME280;41486;52.502;13.486;2022-10-31T04:24:11;101412.81;;;11.33;100.00
55610;BME280;41486;52.502;13.486;2022-10-31T04:26:41;101415.91;;;10.99;100.00
55610;BME280;41486;52.502;13.486;2022-10-31T04:29:09;101417.75;;;10.84;100.00
55610;BME280;41486;52.502;13.486;2022-10-31T04:31:37;101420.19;;;11.15;100.00
55610;BME280;41486;52.502;13.486;2022-10-31T04:34:05;101420.63;;;10.94;100.00
55610;BME280;41486;52.502;13.486;2022-10-31T04:36:34;101421.41;;;11.09;100.00
55610;BME280;41486;52.502;13.486;2022-10-31T04:39:06;101422.44;;;10.94;100.00
55610;BME280;41486;52.502;13.486;2022-10-31T04:41:46;101429.28;;;10.96;100.00
55610;BME280;41486;52.502;13.486;2022-10-31T04:44:14;101424.28;;;11.19;100.00
55610;BME280;41486;52.502;13.486;2022-10-31T04:46:46;101427.44;;;11.11;100.00
55610;BME280;41486;52.502;13.486;2022-10-31T04:49:15;101420.81;;;11.18;100.00
55610;BME280;41486;52.502;13.486;2022-10-31T04:51:43;101434.59;;;11.09;100.00
55610;BME280;41486;52.502;13.486;2022-10-31T04:54:14;101434.47;;;11.11;100.00
55610;BME280;41486;52.502;13.486;2022-10-31T04:57:02;101436.34;;;10.96;100.00
55610;BME280;41486;52.502;13.486;2022-10-31T04:59:30;101430.91;;;11.12;100.00
55610;BME280;41486;52.502;13.486;2022-10-31T05:01:59;101428.53;;;11.34;100.00
55610;BME280;41486;52.502;13.486;2022-10-31T05:04:41;101427.50;;;11.76;100.00
55610;BME280;41486;52.502;13.486;2022-10-31T05:07:09;101423.59;;;11.56;100.00
55610;BME280;41486;52.502;13.486;2022-10-31T05:09:39;101430.66;;;11.94;100.00
55610;BME280;41486;52.502;13.486;2022-10-31T05:12:09;101432.91;;;12.00;100.00
55610;BME280;41486;52.502;13.486;2022-10-31T05:14:56;101432.44;;;12.32;100.00
55610;BME280;41486;52.502;13.486;2022-10-31T05:17:43;101434.38;;;12.04;100.00
55610;BME280;41486;52.502;13.486;2022-10-31T05:20:30;101438.38;;;12.10;100.00
55610;BME280;41486;52.502;13.486;2022-10-31T05:23:27;101441.13;;;12.08;100.00
55610;BME280;41486;52.502;13.486;2022-10-31T05:25:57;101439.13;;;11.99;100.00
55610;BME280;41486;52.502;13.486;2022-10-31T05:28:25;101440.28;;;12.08;100.00
55610;BME280;41486;52.502;13.486;2022-10-31T05:30:53;101440.84;;;12.37;100.00
55610;BME280;41486;52.502;13.486;2022-10-31T05:33:21;101441.75;;;12.25;100.00
55610;BME280;41486;52.502;13.486;2022-10-31T05:35:49;101450.31;;;12.15;100.00
55610;BME280;41486;52.502;13.486;2022-10-31T05:38:37;101451.44;;;12.24;100.00
55610;BME280;41486;52.502;13.486;2022-10-31T05:41:32;101445.69;;;12.43;100.00
55610;BME280;41486;52.502;13.486;2022-10-31T05:44:08;101450.91;;;11.93;100.00
55610;BME280;41486;52.502;13.486;2022-10-31T05:46:59;101449.88;;;11.57;100.00
55610;BME280;41486;52.502;13.486;2022-10-31T05:49:49;101450.75;;;11.30;100.00
55610;BME280;41486;52.502;13.486;2022-10-31T05:52:24;101447.94;;;11.59;100.00
55610;BME280;41486;52.502;13.486;2022-10-31T05:55:00;101446.97;;;11.34;100.00
55610;BME280;41486;52.502;13.486;2022-10-31T05:57:31;101455.50;;;11.38;100.00
55610;BME280;41486;52.502;13.486;2022-10-31T06:00:00;101454.81;;;11.62;100.00
55610;BME280;41486;52.502;13.486;2022-10-31T06:02:32;101458.16;;;11.38;100.00
55610;BME280;41486;52.502;13.486;2022-10-31T06:05:19;101460.31;;;11.59;100.00
55610;BME280;41486;52.502;13.486;2022-10-31T06:07:47;101465.47;;;11.86;100.00
55610;BME280;41486;52.502;13.486;2022-10-31T06:10:15;101467.78;;;11.65;100.00
55610;BME280;41486;52.502;13.486;2022-10-31T06:12:46;101463.56;;;11.62;100.00
55610;BME280;41486;52.502;13.486;2022-10-31T06:15:19;101456.47;;;11.50;100.00
55610;BME280;41486;52.502;13.486;2022-10-31T06:17:59;101466.63;;;11.56;100.00
55610;BME280;41486;52.502;13.486;2022-10-31T06:20:30;101465.03;;;11.66;100.00
55610;BME280;41486;52.502;13.486;2022-10-31T06:23:03;101472.56;;;11.98;100.00
55610;BME280;41486;52.502;13.486;2022-10-31T06:25:33;101474.69;;;12.06;100.00
55610;BME280;41486;52.502;13.486;2022-10-31T06:28:05;101464.41;;;11.76;100.00
55610;BME280;41486;52.502;13.486;2022-10-31T06:30:54;101474.06;;;12.03;100.00
55610;BME280;41486;52.502;13.486;2022-10-31T06:33:23;101473.69;;;11.81;100.00
55610;BME280;41486;52.502;13.486;2022-10-31T06:35:56;101475.84;;;11.89;100.00
55610;BME280;41486;52.502;13.486;2022-10-31T06:38:25;101487.03;;;12.06;100.00
55610;BME280;41486;52.502;13.486;2022-10-31T06:40:54;101484.59;;;12.03;100.00
55610;BME280;41486;52.502;13.486;2022-10-31T06:43:28;101492.94;;;12.09;100.00
55610;BME280;41486;52.502;13.486;2022-10-31T06:46:14;101487.84;;;11.80;100.00
55610;BME280;41486;52.502;13.486;2022-10-31T06:48:57;101491.53;;;11.91;100.00
55610;BME280;41486;52.502;13.486;2022-10-31T06:51:37;101496.50;;;11.82;100.00
55610;BME280;41486;52.502;13.486;2022-10-31T06:54:05;101498.50;;;11.79;100.00
55610;BME280;41486;52.502;13.486;2022-10-31T06:56:33;101510.84;;;11.91;100.00
55610;BME280;41486;52.502;13.486;2022-10-31T06:59:03;101509.50;;;12.11;100.00
55610;BME280;41486;52.502;13.486;2022-10-31T07:02:04;101502.66;;;12.09;100.00
55610;BME280;41486;52.502;13.486;2022-10-31T07:04:33;101515.31;;;12.17;100.00
55610;BME280;41486;52.502;13.486;2022-10-31T07:07:01;101513.72;;;12.14;100.00
55610;BME280;41486;52.502;13.486;2022-10-31T07:09:29;101507.59;;;12.01;100.00
55610;BME280;41486;52.502;13.486;2022-10-31T07:12:01;101512.63;;;11.91;100.00
55610;BME280;41486;52.502;13.486;2022-10-31T07:14:32;101514.41;;;11.90;100.00
55610;BME280;41486;52.502;13.486;2022-10-31T07:17:01;101516.06;;;12.06;100.00
55610;BME280;41486;52.502;13.486;2022-10-31T07:19:38;101516.88;;;12.45;100.00
55610;BME280;41486;52.502;13.486;2022-10-31T07:22:07;101516.25;;;12.78;100.00
55610;BME280;41486;52.502;13.486;2022-10-31T07:24:37;101519.78;;;13.03;100.00
55610;BME280;41486;52.502;13.486;2022-10-31T07:27:27;101521.44;;;13.29;100.00
55610;BME280;41486;52.502;13.486;2022-10-31T07:29:57;101528.06;;;13.47;100.00
55610;BME280;41486;52.502;13.486;2022-10-31T07:32:26;101525.22;;;13.62;100.00
55610;BME280;41486;52.502;13.486;2022-10-31T07:34:59;101524.03;;;13.77;100.00
55610;BME280;41486;52.502;13.486;2022-10-31T07:37:37;101520.22;;;13.93;100.00
55610;BME280;41486;52.502;13.486;2022-10-31T07:40:07;101523.47;;;13.96;100.00
55610;BME280;41486;52.502;13.486;2022-10-31T07:42:36;101529.38;;;14.00;100.00
55610;BME280;41486;52.502;13.486;2022-10-31T07:45:08;101534.56;;;14.13;100.00
55610;BME280;41486;52.502;13.486;2022-10-31T07:48:18;101536.03;;;14.28;100.00
55610;BME280;41486;52.502;13.486;2022-10-31T07:51:04;101534.47;;;14.26;100.00
55610;BME280;41486;52.502;13.486;2022-10-31T07:54:08;101537.94;;;14.38;100.00
55610;BME280;41486;52.502;13.486;2022-10-31T07:56:37;101536.03;;;14.40;100.00
55610;BME280;41486;52.502;13.486;2022-10-31T07:59:08;101540.81;;;14.34;100.00
55610;BME280;41486;52.502;13.486;2022-10-31T08:01:37;101538.31;;;14.44;100.00
55610;BME280;41486;52.502;13.486;2022-10-31T08:04:31;101551.31;;;14.47;100.00
55610;BME280;41486;52.502;13.486;2022-10-31T08:07:18;101553.63;;;14.41;100.00
55610;BME280;41486;52.502;13.486;2022-10-31T08:09:55;101555.66;;;14.48;100.00
55610;BME280;41486;52.502;13.486;2022-10-31T08:12:28;101560.34;;;14.45;100.00
55610;BME280;41486;52.502;13.486;2022-10-31T08:14:56;101556.00;;;14.44;100.00
55610;BME280;41486;52.502;13.486;2022-10-31T08:17:26;101556.00;;;14.55;100.00
55610;BME280;41486;52.502;13.486;2022-10-31T08:19:57;101561.44;;;14.42;100.00
55610;BME280;41486;52.502;13.486;2022-10-31T08:22:30;101551.06;;;14.50;100.00
55610;BME280;41486;52.502;13.486;2022-10-31T08:24:59;101559.75;;;14.52;100.00
55610;BME280;41486;52.502;13.486;2022-10-31T08:27:28;101562.00;;;14.34;100.00
55610;BME280;41486;52.502;13.486;2022-10-31T08:29:59;101561.06;;;14.35;100.00
55610;BME280;41486;52.502;13.486;2022-10-31T08:32:29;101555.41;;;14.40;100.00
55610;BME280;41486;52.502;13.486;2022-10-31T08:35:16;101563.69;;;14.35;100.00
55610;BME280;41486;52.502;13.486;2022-10-31T08:38:22;101572.25;;;14.50;100.00
55610;BME280;41486;52.502;13.486;2022-10-31T08:40:51;101571.78;;;14.34;100.00
55610;BME280;41486;52.502;13.486;2022-10-31T08:43:19;101565.50;;;14.24;100.00
55610;BME280;41486;52.502;13.486;2022-10-31T08:45:49;101574.53;;;14.21;100.00
55610;BME280;41486;52.502;13.486;2022-10-31T08:48:26;101577.03;;;14.23;100.00
55610;BME280;41486;52.502;13.486;2022-10-31T08:50:56;101570.69;;;14.25;100.00
55610;BME280;41486;52.502;13.486;2022-10-31T08:53:27;101569.59;;;14.28;100.00
55610;BME280;41486;52.502;13.486;2022-10-31T08:56:13;101564.66;;;14.23;100.00
55610;BME280;41486;52.502;13.486;2022-10-31T08:58:41;101561.75;;;14.26;100.00
55610;BME280;41486;52.502;13.486;2022-10-31T09:01:10;101557.19;;;14.28;100.00
55610;BME280;41486;52.502;13.486;2022-10-31T09:03:40;101556.25;;;14.29;100.00
55610;BME280;41486;52.502;13.486;2022-10-31T09:06:09;101552.16;;;14.25;100.00
55610;BME280;41486;52.502;13.486;2022-10-31T09:08:38;101567.19;;;14.25;100.00
55610;BME280;41486;52.502;13.486;2022-10-31T09:11:06;101570.44;;;14.28;100.00
55610;BME280;41486;52.502;13.486;2022-10-31T09:13:52;101571.19;;;14.42;100.00
55610;BME280;41486;52.502;13.486;2022-10-31T09:16:46;101577.56;;;14.62;100.00
55610;BME280;41486;52.502;13.486;2022-10-31T09:19:22;101575.41;;;14.44;100.00
55610;BME280;41486;52.502;13.486;2022-10-31T09:21:52;101576.47;;;14.64;100.00
55610;BME280;41486;52.502;13.486;2022-10-31T09:24:21;101589.63;;;14.66;100.00
55610;BME280;41486;52.502;13.486;2022-10-31T09:26:49;101591.88;;;14.59;100.00
55610;BME280;41486;52.502;13.486;2022-10-31T09:29:26;101592.84;;;14.47;100.00
55610;BME280;41486;52.502;13.486;2022-10-31T09:31:58;101587.66;;;14.57;100.00
55610;BME280;41486;52.502;13.486;2022-10-31T09:34:33;101586.84;;;14.67;100.00
55610;BME280;41486;52.502;13.486;2022-10-31T09:37:04;101589.25;;;14.93;100.00
55610;BME280;41486;52.502;13.486;2022-10-31T09:39:34;101596.38;;;14.81;100.00
55610;BME280;41486;52.502;13.486;2022-10-31T09:42:29;101588.41;;;14.93;100.00
55610;BME280;41486;52.502;13.486;2022-10-31T09:45:15;101584.91;;;15.04;100.00
55610;BME280;41486;52.502;13.486;2022-10-31T09:47:54;101591.97;;;15.14;100.00
55610;BME280;41486;52.502;13.486;2022-10-31T09:50:31;101598.38;;;15.12;100.00
55610;BME280;41486;52.502;13.486;2022-10-31T09:53:23;101598.13;;;15.15;100.00
55610;BME280;41486;52.502;13.486;2022-10-31T09:55:54;101598.59;;;15.20;100.00
55610;BME280;41486;52.502;13.486;2022-10-31T09:58:25;101604.13;;;15.28;100.00
55610;BME280;41486;52.502;13.486;2022-10-31T10:00:58;101591.25;;;15.24;100.00
55610;BME280;41486;52.502;13.486;2022-10-31T10:03:32;101607.97;;;15.24;100.00
55610;BME280;41486;52.502;13.486;2022-10-31T10:06:18;101600.16;;;15.23;100.00
55610;BME280;41486;52.502;13.486;2022-10-31T10:09:07;101594.34;;;15.29;100.00
55610;BME280;41486;52.502;13.486;2022-10-31T10:12:16;101593.63;;;15.27;100.00
55610;BME280;41486;52.502;13.486;2022-10-31T10:14:57;101603.25;;;15.39;100.00
55610;BME280;41486;52.502;13.486;2022-10-31T10:17:36;101598.97;;;15.48;100.00
55610;BME280;41486;52.502;13.486;2022-10-31T10:20:21;101579.91;;;15.54;100.00
55610;BME280;41486;52.502;13.486;2022-10-31T10:23:01;101578.69;;;15.58;100.00
55610;BME280;41486;52.502;13.486;2022-10-31T10:25:37;101576.38;;;15.65;100.00
55610;BME280;41486;52.502;13.486;2022-10-31T10:28:15;101575.28;;;15.68;100.00
55610;BME280;41486;52.502;13.486;2022-10-31T10:30:48;101579.88;;;15.66;100.00
55610;BME280;41486;52.502;13.486;2022-10-31T10:33:20;101577.31;;;15.43;100.00
55610;BME280;41486;52.502;13.486;2022-10-31T10:35:53;101580.94;;;15.42;100.00
55610;BME280;41486;52.502;13.486;2022-10-31T10:38:30;101576.28;;;15.55;100.00
55610;BME280;41486;52.502;13.486;2022-10-31T10:41:03;101575.88;;;15.71;100.00
55610;BME280;41486;52.502;13.486;2022-10-31T10:43:34;101575.34;;;15.89;100.00
55610;BME280;41486;52.502;13.486;2022-10-31T10:46:15;101561.94;;;15.79;100.00
55610;BME280;41486;52.502;13.486;2022-10-31T10:49:09;101572.28;;;15.93;100.00
55610;BME280;41486;52.502;13.486;2022-10-31T10:51:44;101566.16;;;16.24;100.00
55610;BME280;41486;52.502;13.486;2022-10-31T10:54:44;101560.50;;;16.38;100.00
55610;BME280;41486;52.502;13.486;2022-10-31T10:57:38;101565.25;;;16.66;100.00
55610;BME280;41486;52.502;13.486;2022-10-31T11:00:17;101568.84;;;16.96;100.00
55610;BME280;41486;52.502;13.486;2022-10-31T11:02:46;101571.28;;;16.78;100.00
55610;BME280;41486;52.502;13.486;2022-10-31T11:05:28;101568.31;;;17.41;100.00
55610;BME280;41486;52.502;13.486;2022-10-31T11:07:56;101566.59;;;18.09;96.24
55610;BME280;41486;52.502;13.486;2022-10-31T11:10:25;101570.19;;;18.65;92.23
55610;BME280;41486;52.502;13.486;2022-10-31T11:13:00;101565.13;;;19.54;85.27
55610;BME280;41486;52.502;13.486;2022-10-31T11:15:32;101564.19;;;20.08;82.00
55610;BME280;41486;52.502;13.486;2022-10-31T11:18:01;101565.44;;;18.87;86.21
55610;BME280;41486;52.502;13.486;2022-10-31T11:20:31;101572.59;;;18.58;90.54
55610;BME280;41486;52.502;13.486;2022-10-31T11:23:15;101559.31;;;17.91;95.88
55610;BME280;41486;52.502;13.486;2022-10-31T11:25:55;101552.84;;;18.13;93.91
55610;BME280;41486;52.502;13.486;2022-10-31T11:28:24;101554.38;;;18.26;92.01
55610;BME280;41486;52.502;13.486;2022-10-31T11:30:55;101544.34;;;18.00;93.01
55610;BME280;41486;52.502;13.486;2022-10-31T11:33:28;101544.53;;;17.30;98.83
55610;BME280;41486;52.502;13.486;2022-10-31T11:35:57;101548.03;;;17.30;99.91
55610;BME280;41486;52.502;13.486;2022-10-31T11:38:31;101546.34;;;17.29;99.28
55610;BME280;41486;52.502;13.486;2022-10-31T11:41:10;101544.13;;;17.44;98.72
55610;BME280;41486;52.502;13.486;2022-10-31T11:43:46;101545.06;;;17.53;98.29
55610;BME280;41486;52.502;13.486;2022-10-31T11:46:20;101544.66;;;17.77;97.08
55610;BME280;41486;52.502;13.486;2022-10-31T11:48:51;101534.25;;;18.04;96.61
55610;BME280;41486;52.502;13.486;2022-10-31T11:51:22;101534.28;;;18.32;94.02
55610;BME280;41486;52.502;13.486;2022-10-31T11:53:52;101537.13;;;18.58;92.65
55610;BME280;41486;52.502;13.486;2022-10-31T11:56:38;101538.22;;;18.55;93.13
55610;BME280;41486;52.502;13.486;2022-10-31T11:59:17;101545.44;;;18.73;91.81
55610;BME280;41486;52.502;13.486;2022-10-31T12:01:49;101546.44;;;19.00;88.94
55610;BME280;41486;52.502;13.486;2022-10-31T12:04:18;101540.19;;;19.09;89.18
55610;BME280;41486;52.502;13.486;2022-10-31T12:06:47;101538.81;;;19.23;87.61
55610;BME280;41486;52.502;13.486;2022-10-31T12:09:21;101536.59;;;20.68;82.06
55610;BME280;41486;52.502;13.486;2022-10-31T12:12:07;101539.22;;;21.94;73.21
55610;BME280;41486;52.502;13.486;2022-10-31T12:14:45;101548.75;;;22.92;67.61
55610;BME280;41486;52.502;13.486;2022-10-31T12:17:16;101549.88;;;22.98;67.60
55610;BME280;41486;52.502;13.486;2022-10-31T12:19:54;101539.22;;;23.59;64.17
55610;BME280;41486;52.502;13.486;2022-10-31T12:22:32;101551.41;;;24.97;57.61
55610;BME280;41486;52.502;13.486;2022-10-31T12:25:19;101539.22;;;23.59;61.62
55610;BME280;41486;52.502;13.486;2022-10-31T12:28:04;101543.09;;;25.13;58.98
55610;BME280;41486;52.502;13.486;2022-10-31T12:30:48;101543.16;;;25.98;54.25
55610;BME280;41486;52.502;13.486;2022-10-31T12:33:34;101538.63;;;26.06;52.49
55610;BME280;41486;52.502;13.486;2022-10-31T12:36:25;101537.72;;;23.10;61.55
55610;BME280;41486;52.502;13.486;2022-10-31T12:39:09;101525.66;;;24.36;59.22
55610;BME280;41486;52.502;13.486;2022-10-31T12:41:47;101522.28;;;23.12;61.78
55610;BME280;41486;52.502;13.486;2022-10-31T12:44:33;101516.50;;;22.69;66.65
55610;BME280;41486;52.502;13.486;2022-10-31T12:47:18;101516.81;;;23.44;64.02
55610;BME280;41486;52.502;13.486;2022-10-31T12:49:55;101515.78;;;23.68;61.37
55610;BME280;41486;52.502;13.486;2022-10-31T12:52:39;101520.00;;;24.01;59.42
55610;BME280;41486;52.502;13.486;2022-10-31T12:55:25;101517.47;;;22.36;66.54
55610;BME280;41486;52.502;13.486;2022-10-31T12:58:00;101513.78;;;23.00;64.33
55610;BME280;41486;52.502;13.486;2022-10-31T13:00:34;101510.28;;;21.23;71.06
55610;BME280;41486;52.502;13.486;2022-10-31T13:03:05;101504.06;;;20.38;77.99
55610;BME280;41486;52.502;13.486;2022-10-31T13:05:41;101511.63;;;20.16;79.89
55610;BME280;41486;52.502;13.486;2022-10-31T13:08:12;101498.84;;;19.94;81.00
55610;BME280;41486;52.502;13.486;2022-10-31T13:10:46;101503.75;;;19.80;81.84
55610;BME280;41486;52.502;13.486;2022-10-31T13:13:18;101505.69;;;20.23;80.67
55610;BME280;41486;52.502;13.486;2022-10-31T13:15:51;101498.88;;;20.37;79.58